Main page
METAR-TAF:

METAR-TAF

Airports :

Nîmes–Alès–Camargue–Cévennes Airport

Nîmes, France

latitude: 43-45N, longitude: 004-25E, elevation: 94 m

Current weather observation

The report was made 42 minutes ago, at 07:30 UTC
Wind 21 kt from the North with gusts up to 33 kt, varying between North/Northwest and Northeast
Temperature 10°C
Humidity 53%
Pressure 1016 hPa
Visibility 10 km or more
no clouds below 1500 m and no cumulonimbus

METAR: LFTW 210730Z AUTO 36021G33KT 340V040 CAVOK 10/01 Q1016 NOSIG

Time: 10:12 (08:12 UTC)

Forecast

The report was made 6 hours and 12 minutes ago, at 02:00 UTC
Forecast valid from 21 at 03 UTC to 22 at 03 UTC
Wind 15 kt from the North with gusts up to 30 kt
Visibility 10 km or more
no clouds below 1500 m and no cumulonimbus

TAF: LFTW 210200Z 2103/2203 36015G30KT CAVOK

Weather observations and forecasts of more than 4000 airports (METAR and TAF reports).

The available stations are represented by yellow and red dots on the map.

Hover mouse over dot to see the name of the station.

Then click to see weather observations and forecasts.

To change the map : click on the green buttons with a black cross to zoom in, on the green button with a dash to zoom out, or on the green arrows for adjacent maps.


METAR-TAF: